sensor_id;sensor_type;location;lat;lon;timestamp;temperature;humidity
10247;DHT22;5168;47.854;7.944;2022-10-17T00:01:11;12.60;99.90
10247;DHT22;5168;47.854;7.944;2022-10-17T00:03:39;12.80;99.90
10247;DHT22;5168;47.854;7.944;2022-10-17T00:06:13;12.90;99.90
10247;DHT22;5168;47.854;7.944;2022-10-17T00:08:40;12.70;99.90
10247;DHT22;5168;47.854;7.944;2022-10-17T00:11:08;13.20;99.90
10247;DHT22;5168;47.854;7.944;2022-10-17T00:16:02;12.60;99.90
10247;DHT22;5168;47.854;7.944;2022-10-17T00:18:28;13.00;99.90
10247;DHT22;5168;47.854;7.944;2022-10-17T00:28:12;12.30;99.90
10247;DHT22;5168;47.854;7.944;2022-10-17T00:30:39;12.30;99.90
10247;DHT22;5168;47.854;7.944;2022-10-17T00:33:05;12.90;99.90
10247;DHT22;5168;47.854;7.944;2022-10-17T00:35:31;12.50;99.90
10247;DHT22;5168;47.854;7.944;2022-10-17T00:37:57;12.70;99.90
10247;DHT22;5168;47.854;7.944;2022-10-17T00:40:22;12.70;99.90
10247;DHT22;5168;47.854;7.944;2022-10-17T00:42:48;12.60;99.90
10247;DHT22;5168;47.854;7.944;2022-10-17T00:45:20;12.30;99.90
10247;DHT22;5168;47.854;7.944;2022-10-17T00:47:50;12.00;99.90
10247;DHT22;5168;47.854;7.944;2022-10-17T00:50:18;12.50;99.90
10247;DHT22;5168;47.854;7.944;2022-10-17T00:52:45;12.20;99.90
10247;DHT22;5168;47.854;7.944;2022-10-17T00:55:24;11.80;99.90
10247;DHT22;5168;47.854;7.944;2022-10-17T00:57:53;12.20;99.90
10247;DHT22;5168;47.854;7.944;2022-10-17T01:00:23;12.50;99.90
10247;DHT22;5168;47.854;7.944;2022-10-17T01:02:48;12.30;99.90
10247;DHT22;5168;47.854;7.944;2022-10-17T01:05:18;12.50;99.90
10247;DHT22;5168;47.854;7.944;2022-10-17T01:07:45;12.40;99.90
10247;DHT22;5168;47.854;7.944;2022-10-17T01:10:12;13.00;99.90
10247;DHT22;5168;47.854;7.944;2022-10-17T01:13:10;12.60;99.90
10247;DHT22;5168;47.854;7.944;2022-10-17T01:15:49;12.00;99.90
10247;DHT22;5168;47.854;7.944;2022-10-17T01:18:29;12.30;99.90
10247;DHT22;5168;47.854;7.944;2022-10-17T01:24:20;12.30;99.90
10247;DHT22;5168;47.854;7.944;2022-10-17T01:33:05;12.60;99.90
10247;DHT22;5168;47.854;7.944;2022-10-17T01:35:45;12.30;99.90
10247;DHT22;5168;47.854;7.944;2022-10-17T01:38:19;12.40;99.90
10247;DHT22;5168;47.854;7.944;2022-10-17T01:40:50;12.00;99.90
10247;DHT22;5168;47.854;7.944;2022-10-17T01:43:23;12.60;99.90
10247;DHT22;5168;47.854;7.944;2022-10-17T01:46:05;12.50;99.90
10247;DHT22;5168;47.854;7.944;2022-10-17T01:48:35;12.00;99.90
10247;DHT22;5168;47.854;7.944;2022-10-17T01:51:16;11.70;99.90
10247;DHT22;5168;47.854;7.944;2022-10-17T01:53:53;12.20;99.90
10247;DHT22;5168;47.854;7.944;2022-10-17T01:56:26;12.20;99.90
10247;DHT22;5168;47.854;7.944;2022-10-17T01:58:57;12.60;99.90
10247;DHT22;5168;47.854;7.944;2022-10-17T02:01:25;12.20;99.90
10247;DHT22;5168;47.854;7.944;2022-10-17T02:03:54;12.00;99.90
10247;DHT22;5168;47.854;7.944;2022-10-17T02:06:20;12.40;99.90
10247;DHT22;5168;47.854;7.944;2022-10-17T02:08:48;12.30;99.90
10247;DHT22;5168;47.854;7.944;2022-10-17T02:14:12;12.50;99.90
10247;DHT22;5168;47.854;7.944;2022-10-17T02:22:34;12.00;99.90
10247;DHT22;5168;47.854;7.944;2022-10-17T02:27:54;12.20;99.90
10247;DHT22;5168;47.854;7.944;2022-10-17T02:30:33;11.80;99.90
10247;DHT22;5168;47.854;7.944;2022-10-17T02:33:41;12.40;99.90
10247;DHT22;5168;47.854;7.944;2022-10-17T02:36:22;11.60;99.90
10247;DHT22;5168;47.854;7.944;2022-10-17T02:38:53;12.10;99.90
10247;DHT22;5168;47.854;7.944;2022-10-17T02:41:21;12.40;99.90
10247;DHT22;5168;47.854;7.944;2022-10-17T02:43:49;12.10;99.90
10247;DHT22;5168;47.854;7.944;2022-10-17T02:46:18;12.00;99.90
10247;DHT22;5168;47.854;7.944;2022-10-17T02:51:44;12.20;99.90
10247;DHT22;5168;47.854;7.944;2022-10-17T02:54:18;12.60;99.90
10247;DHT22;5168;47.854;7.944;2022-10-17T02:56:58;12.30;99.90
10247;DHT22;5168;47.854;7.944;2022-10-17T02:59:26;12.30;99.90
10247;DHT22;5168;47.854;7.944;2022-10-17T03:01:53;12.60;99.90
10247;DHT22;5168;47.854;7.944;2022-10-17T03:06:47;12.30;99.90
10247;DHT22;5168;47.854;7.944;2022-10-17T03:09:13;11.70;99.90
10247;DHT22;5168;47.854;7.944;2022-10-17T03:11:39;12.00;99.90
10247;DHT22;5168;47.854;7.944;2022-10-17T03:14:05;12.50;99.90
10247;DHT22;5168;47.854;7.944;2022-10-17T03:23:48;12.30;99.90
10247;DHT22;5168;47.854;7.944;2022-10-17T03:26:14;11.70;99.90
10247;DHT22;5168;47.854;7.944;2022-10-17T03:28:39;12.30;99.90
10247;DHT22;5168;47.854;7.944;2022-10-17T03:31:07;11.70;99.90
10247;DHT22;5168;47.854;7.944;2022-10-17T03:33:32;11.60;99.90
10247;DHT22;5168;47.854;7.944;2022-10-17T03:35:59;12.30;99.90
10247;DHT22;5168;47.854;7.944;2022-10-17T03:38:28;11.90;99.90
10247;DHT22;5168;47.854;7.944;2022-10-17T03:40:54;11.80;99.90
10247;DHT22;5168;47.854;7.944;2022-10-17T03:43:20;12.60;99.90
10247;DHT22;5168;47.854;7.944;2022-10-17T03:53:03;12.10;99.90
10247;DHT22;5168;47.854;7.944;2022-10-17T03:55:29;11.90;99.90
10247;DHT22;5168;47.854;7.944;2022-10-17T03:57:56;12.00;99.90
10247;DHT22;5168;47.854;7.944;2022-10-17T04:00:21;12.30;99.90
10247;DHT22;5168;47.854;7.944;2022-10-17T04:02:50;12.10;99.90
10247;DHT22;5168;47.854;7.944;2022-10-17T04:07:41;11.80;99.90
10247;DHT22;5168;47.854;7.944;2022-10-17T04:10:07;11.90;99.90
10247;DHT22;5168;47.854;7.944;2022-10-17T04:12:33;12.10;99.90
10247;DHT22;5168;47.854;7.944;2022-10-17T04:14:58;11.70;99.90
10247;DHT22;5168;47.854;7.944;2022-10-17T04:24:44;12.60;99.90
10247;DHT22;5168;47.854;7.944;2022-10-17T04:27:10;11.80;99.90
10247;DHT22;5168;47.854;7.944;2022-10-17T04:29:35;11.90;99.90
10247;DHT22;5168;47.854;7.944;2022-10-17T04:32:01;11.70;99.90
10247;DHT22;5168;47.854;7.944;2022-10-17T04:36:52;11.90;99.90
10247;DHT22;5168;47.854;7.944;2022-10-17T04:39:18;12.40;99.90
10247;DHT22;5168;47.854;7.944;2022-10-17T04:41:44;12.20;99.90
10247;DHT22;5168;47.854;7.944;2022-10-17T04:49:01;11.70;99.90
10247;DHT22;5168;47.854;7.944;2022-10-17T04:51:27;12.10;99.90
10247;DHT22;5168;47.854;7.944;2022-10-17T04:53:52;12.40;99.90
10247;DHT22;5168;47.854;7.944;2022-10-17T04:56:20;12.20;99.90
10247;DHT22;5168;47.854;7.944;2022-10-17T04:58:46;12.20;99.90
10247;DHT22;5168;47.854;7.944;2022-10-17T05:01:18;12.20;99.90
10247;DHT22;5168;47.854;7.944;2022-10-17T05:03:44;12.40;99.90
10247;DHT22;5168;47.854;7.944;2022-10-17T05:06:15;12.30;99.90
10247;DHT22;5168;47.854;7.944;2022-10-17T05:08:42;11.90;99.90
10247;DHT22;5168;47.854;7.944;2022-10-17T05:11:20;12.00;99.90
10247;DHT22;5168;47.854;7.944;2022-10-17T05:13:57;12.10;99.90
10247;DHT22;5168;47.854;7.944;2022-10-17T05:16:24;12.00;99.90
10247;DHT22;5168;47.854;7.944;2022-10-17T05:18:52;12.00;99.90
10247;DHT22;5168;47.854;7.944;2022-10-17T05:21:18;11.60;99.90
10247;DHT22;5168;47.854;7.944;2022-10-17T05:23:45;12.80;99.90
10247;DHT22;5168;47.854;7.944;2022-10-17T05:26:11;11.70;99.90
10247;DHT22;5168;47.854;7.944;2022-10-17T05:28:36;11.90;99.90
10247;DHT22;5168;47.854;7.944;2022-10-17T05:31:03;11.80;99.90
10247;DHT22;5168;47.854;7.944;2022-10-17T05:33:30;11.50;99.90
10247;DHT22;5168;47.854;7.944;2022-10-17T05:35:55;11.90;99.90
10247;DHT22;5168;47.854;7.944;2022-10-17T05:38:21;12.40;99.90
10247;DHT22;5168;47.854;7.944;2022-10-17T05:48:06;12.00;99.90
10247;DHT22;5168;47.854;7.944;2022-10-17T05:50:33;12.00;99.90
10247;DHT22;5168;47.854;7.944;2022-10-17T05:55:25;12.10;99.90
10247;DHT22;5168;47.854;7.944;2022-10-17T05:57:51;12.30;99.90
10247;DHT22;5168;47.854;7.944;2022-10-17T06:00:19;12.10;99.90
10247;DHT22;5168;47.854;7.944;2022-10-17T06:02:45;11.80;99.90
10247;DHT22;5168;47.854;7.944;2022-10-17T06:05:11;11.80;99.90
10247;DHT22;5168;47.854;7.944;2022-10-17T06:07:40;12.10;99.90
10247;DHT22;5168;47.854;7.944;2022-10-17T06:10:06;11.80;99.90
10247;DHT22;5168;47.854;7.944;2022-10-17T06:14:58;12.40;99.90
10247;DHT22;5168;47.854;7.944;2022-10-17T06:17:23;11.80;99.90
10247;DHT22;5168;47.854;7.944;2022-10-17T06:27:07;12.00;99.90
10247;DHT22;5168;47.854;7.944;2022-10-17T06:29:33;11.90;99.90
10247;DHT22;5168;47.854;7.944;2022-10-17T06:31:58;12.00;99.90
10247;DHT22;5168;47.854;7.944;2022-10-17T06:41:42;12.00;99.90
10247;DHT22;5168;47.854;7.944;2022-10-17T06:46:38;13.00;99.90
10247;DHT22;5168;47.854;7.944;2022-10-17T06:49:04;13.30;99.90
10247;DHT22;5168;47.854;7.944;2022-10-17T06:51:33;13.20;99.90
10247;DHT22;5168;47.854;7.944;2022-10-17T06:58:51;14.70;99.90
10247;DHT22;5168;47.854;7.944;2022-10-17T07:01:17;14.20;99.90
10247;DHT22;5168;47.854;7.944;2022-10-17T07:03:42;15.10;99.90
10247;DHT22;5168;47.854;7.944;2022-10-17T07:06:11;14.40;99.90
10247;DHT22;5168;47.854;7.944;2022-10-17T07:08:37;15.50;99.90
10247;DHT22;5168;47.854;7.944;2022-10-17T07:11:11;15.60;99.90
10247;DHT22;5168;47.854;7.944;2022-10-17T07:13:37;14.80;99.90
10247;DHT22;5168;47.854;7.944;2022-10-17T07:18:28;15.30;99.90
10247;DHT22;5168;47.854;7.944;2022-10-17T07:20:54;16.30;99.90
10247;DHT22;5168;47.854;7.944;2022-10-17T07:23:20;16.40;99.90
10247;DHT22;5168;47.854;7.944;2022-10-17T07:25:46;16.60;99.90
10247;DHT22;5168;47.854;7.944;2022-10-17T07:28:14;16.30;99.90
10247;DHT22;5168;47.854;7.944;2022-10-17T07:30:40;15.70;99.90
10247;DHT22;5168;47.854;7.944;2022-10-17T07:33:06;16.50;99.90
10247;DHT22;5168;47.854;7.944;2022-10-17T07:37:57;16.60;99.90
10247;DHT22;5168;47.854;7.944;2022-10-17T07:40:23;16.00;99.90
10247;DHT22;5168;47.854;7.944;2022-10-17T07:42:49;16.30;99.90
10247;DHT22;5168;47.854;7.944;2022-10-17T07:57:25;16.60;99.90
10247;DHT22;5168;47.854;7.944;2022-10-17T07:59:50;17.30;99.90
10247;DHT22;5168;47.854;7.944;2022-10-17T08:02:26;17.20;99.90
10247;DHT22;5168;47.854;7.944;2022-10-17T08:04:52;17.30;99.90
10247;DHT22;5168;47.854;7.944;2022-10-17T08:07:18;17.50;99.90
10247;DHT22;5168;47.854;7.944;2022-10-17T08:09:44;18.10;99.90
10247;DHT22;5168;47.854;7.944;2022-10-17T08:12:10;18.40;99.90
10247;DHT22;5168;47.854;7.944;2022-10-17T08:14:38;18.60;99.90
10247;DHT22;5168;47.854;7.944;2022-10-17T08:19:30;18.80;99.90
10247;DHT22;5168;47.854;7.944;2022-10-17T08:21:55;18.70;99.90
10247;DHT22;5168;47.854;7.944;2022-10-17T08:29:15;18.80;99.90
10247;DHT22;5168;47.854;7.944;2022-10-17T08:47:11;21.90;99.90
10247;DHT22;5168;47.854;7.944;2022-10-17T08:49:50;21.80;99.90
10247;DHT22;5168;47.854;7.944;2022-10-17T08:52:56;22.30;99.90
10247;DHT22;5168;47.854;7.944;2022-10-17T08:55:32;22.70;99.90
10247;DHT22;5168;47.854;7.944;2022-10-17T08:58:00;22.40;99.90
10247;DHT22;5168;47.854;7.944;2022-10-17T09:00:27;23.30;99.90
10247;DHT22;5168;47.854;7.944;2022-10-17T09:03:10;23.20;99.90
10247;DHT22;5168;47.854;7.944;2022-10-17T09:06:12;23.00;99.90
10247;DHT22;5168;47.854;7.944;2022-10-17T09:08:48;23.50;99.90
10247;DHT22;5168;47.854;7.944;2022-10-17T09:17:09;24.10;99.90
10247;DHT22;5168;47.854;7.944;2022-10-17T09:19:41;24.20;99.90
10247;DHT22;5168;47.854;7.944;2022-10-17T09:27:40;24.40;98.70
10247;DHT22;5168;47.854;7.944;2022-10-17T09:33:19;25.40;96.30
10247;DHT22;5168;47.854;7.944;2022-10-17T09:38:18;26.20;94.30
10247;DHT22;5168;47.854;7.944;2022-10-17T09:40:53;24.60;98.00
10247;DHT22;5168;47.854;7.944;2022-10-17T09:43:20;24.20;97.60
10247;DHT22;5168;47.854;7.944;2022-10-17T09:46:06;24.30;94.60
10247;DHT22;5168;47.854;7.944;2022-10-17T09:53:37;24.70;95.40
10247;DHT22;5168;47.854;7.944;2022-10-17T09:56:10;25.20;91.20
10247;DHT22;5168;47.854;7.944;2022-10-17T09:58:44;25.90;95.40
10247;DHT22;5168;47.854;7.944;2022-10-17T10:03:40;25.70;93.70
10247;DHT22;5168;47.854;7.944;2022-10-17T10:06:13;25.30;90.60
10247;DHT22;5168;47.854;7.944;2022-10-17T10:08:52;25.70;92.50
10247;DHT22;5168;47.854;7.944;2022-10-17T10:11:22;25.20;91.80
10247;DHT22;5168;47.854;7.944;2022-10-17T10:13:49;25.10;92.00
10247;DHT22;5168;47.854;7.944;2022-10-17T10:16:31;25.70;92.50
10247;DHT22;5168;47.854;7.944;2022-10-17T10:18:57;25.90;92.30
10247;DHT22;5168;47.854;7.944;2022-10-17T10:21:25;25.60;92.70
10247;DHT22;5168;47.854;7.944;2022-10-17T10:24:23;25.90;84.30
10247;DHT22;5168;47.854;7.944;2022-10-17T10:26:50;26.30;90.20
10247;DHT22;5168;47.854;7.944;2022-10-17T10:29:29;25.80;92.20
10247;DHT22;5168;47.854;7.944;2022-10-17T10:34:32;26.30;90.90
10247;DHT22;5168;47.854;7.944;2022-10-17T10:37:14;26.20;90.30
10247;DHT22;5168;47.854;7.944;2022-10-17T10:39:48;26.90;87.00
10247;DHT22;5168;47.854;7.944;2022-10-17T10:44:58;26.80;88.00
10247;DHT22;5168;47.854;7.944;2022-10-17T10:47:30;27.10;77.60
10247;DHT22;5168;47.854;7.944;2022-10-17T10:50:35;27.00;84.10
10247;DHT22;5168;47.854;7.944;2022-10-17T10:56:03;27.30;85.20
10247;DHT22;5168;47.854;7.944;2022-10-17T11:01:02;27.90;76.80
10247;DHT22;5168;47.854;7.944;2022-10-17T11:03:49;27.80;83.40
10247;DHT22;5168;47.854;7.944;2022-10-17T11:06:25;27.90;80.40
10247;DHT22;5168;47.854;7.944;2022-10-17T11:11:52;28.00;81.70
10247;DHT22;5168;47.854;7.944;2022-10-17T11:14:39;27.80;74.40
10247;DHT22;5168;47.854;7.944;2022-10-17T11:17:27;27.90;73.00
10247;DHT22;5168;47.854;7.944;2022-10-17T11:20:24;27.80;80.10
10247;DHT22;5168;47.854;7.944;2022-10-17T11:23:00;27.90;76.60
10247;DHT22;5168;47.854;7.944;2022-10-17T11:25:34;28.00;82.30
10247;DHT22;5168;47.854;7.944;2022-10-17T11:28:01;28.40;72.30
10247;DHT22;5168;47.854;7.944;2022-10-17T11:30:37;28.40;74.20
10247;DHT22;5168;47.854;7.944;2022-10-17T11:35:37;28.40;70.80
10247;DHT22;5168;47.854;7.944;2022-10-17T11:40:43;28.60;73.80
10247;DHT22;5168;47.854;7.944;2022-10-17T11:43:36;28.90;79.00
10247;DHT22;5168;47.854;7.944;2022-10-17T11:46:11;29.00;77.00
10247;DHT22;5168;47.854;7.944;2022-10-17T11:48:41;29.10;77.20
10247;DHT22;5168;47.854;7.944;2022-10-17T11:51:11;28.90;69.80
10247;DHT22;5168;47.854;7.944;2022-10-17T11:54:01;28.80;69.50
10247;DHT22;5168;47.854;7.944;2022-10-17T11:56:48;28.80;76.50
10247;DHT22;5168;47.854;7.944;2022-10-17T12:00:02;29.00;70.40
10247;DHT22;5168;47.854;7.944;2022-10-17T12:02:42;29.20;75.80
10247;DHT22;5168;47.854;7.944;2022-10-17T12:11:04;29.30;75.60
10247;DHT22;5168;47.854;7.944;2022-10-17T12:18:42;29.30;77.50
10247;DHT22;5168;47.854;7.944;2022-10-17T12:21:07;29.50;77.60
10247;DHT22;5168;47.854;7.944;2022-10-17T12:23:33;29.40;73.70
10247;DHT22;5168;47.854;7.944;2022-10-17T12:26:03;29.40;77.80
10247;DHT22;5168;47.854;7.944;2022-10-17T12:28:32;29.40;78.10
10247;DHT22;5168;47.854;7.944;2022-10-17T12:33:57;29.70;70.10
10247;DHT22;5168;47.854;7.944;2022-10-17T12:46:48;29.70;74.80
10247;DHT22;5168;47.854;7.944;2022-10-17T12:54:43;29.60;77.00
10247;DHT22;5168;47.854;7.944;2022-10-17T12:57:20;30.10;78.30
10247;DHT22;5168;47.854;7.944;2022-10-17T12:59:46;29.70;77.50
10247;DHT22;5168;47.854;7.944;2022-10-17T13:02:19;29.80;69.00
10247;DHT22;5168;47.854;7.944;2022-10-17T13:04:46;29.70;76.10
10247;DHT22;5168;47.854;7.944;2022-10-17T13:07:19;29.60;78.30
10247;DHT22;5168;47.854;7.944;2022-10-17T13:09:46;29.60;69.60
10247;DHT22;5168;47.854;7.944;2022-10-17T13:12:17;29.50;68.90
10247;DHT22;5168;47.854;7.944;2022-10-17T13:14:44;29.70;77.20
10247;DHT22;5168;47.854;7.944;2022-10-17T13:17:26;30.10;75.30
10247;DHT22;5168;47.854;7.944;2022-10-17T13:19:53;29.20;67.70
10247;DHT22;5168;47.854;7.944;2022-10-17T13:22:22;28.60;74.40
10247;DHT22;5168;47.854;7.944;2022-10-17T13:24:50;29.00;76.20
10247;DHT22;5168;47.854;7.944;2022-10-17T13:34:42;28.20;71.40
10247;DHT22;5168;47.854;7.944;2022-10-17T13:37:12;28.00;71.50
10247;DHT22;5168;47.854;7.944;2022-10-17T13:39:44;27.90;77.70
10247;DHT22;5168;47.854;7.944;2022-10-17T13:42:27;27.90;77.90
10247;DHT22;5168;47.854;7.944;2022-10-17T13:44:54;27.60;78.80
10247;DHT22;5168;47.854;7.944;2022-10-17T13:47:26;28.00;71.10
10247;DHT22;5168;47.854;7.944;2022-10-17T13:49:52;27.90;71.80
10247;DHT22;5168;47.854;7.944;2022-10-17T13:52:21;27.70;70.00
10247;DHT22;5168;47.854;7.944;2022-10-17T13:54:49;27.70;77.70
10247;DHT22;5168;47.854;7.944;2022-10-17T13:57:27;27.60;78.70
10247;DHT22;5168;47.854;7.944;2022-10-17T13:59:58;27.60;77.90
10247;DHT22;5168;47.854;7.944;2022-10-17T14:02:27;27.50;78.60
10247;DHT22;5168;47.854;7.944;2022-10-17T14:05:07;28.00;79.60
10247;DHT22;5168;47.854;7.944;2022-10-17T14:07:36;27.50;79.80
10247;DHT22;5168;47.854;7.944;2022-10-17T14:10:03;27.60;79.90
10247;DHT22;5168;47.854;7.944;2022-10-17T14:12:31;27.10;72.40
10247;DHT22;5168;47.854;7.944;2022-10-17T14:14:57;26.70;79.20
10247;DHT22;5168;47.854;7.944;2022-10-17T14:17:25;26.30;81.10
10247;DHT22;5168;47.854;7.944;2022-10-17T14:19:57;25.60;81.30
10247;DHT22;5168;47.854;7.944;2022-10-17T14:22:28;25.50;82.90
10247;DHT22;5168;47.854;7.944;2022-10-17T14:24:54;25.40;83.80
10247;DHT22;5168;47.854;7.944;2022-10-17T14:27:26;24.80;77.00
10247;DHT22;5168;47.854;7.944;2022-10-17T14:29:55;24.40;86.10
10247;DHT22;5168;47.854;7.944;2022-10-17T14:32:22;24.60;87.80
10247;DHT22;5168;47.854;7.944;2022-10-17T14:34:53;23.80;78.60
10247;DHT22;5168;47.854;7.944;2022-10-17T14:39:48;23.60;90.10
10247;DHT22;5168;47.854;7.944;2022-10-17T14:42:20;23.30;90.50
10247;DHT22;5168;47.854;7.944;2022-10-17T14:44:50;22.50;88.80
10247;DHT22;5168;47.854;7.944;2022-10-17T14:47:22;22.20;88.50
10247;DHT22;5168;47.854;7.944;2022-10-17T14:49:50;22.10;87.80
10247;DHT22;5168;47.854;7.944;2022-10-17T14:52:27;22.00;92.00
10247;DHT22;5168;47.854;7.944;2022-10-17T14:54:54;22.60;92.80
10247;DHT22;5168;47.854;7.944;2022-10-17T14:57:47;21.90;87.40
10247;DHT22;5168;47.854;7.944;2022-10-17T15:00:14;21.70;87.80
10247;DHT22;5168;47.854;7.944;2022-10-17T15:02:40;21.20;93.20
10247;DHT22;5168;47.854;7.944;2022-10-17T15:05:06;21.50;93.10
10247;DHT22;5168;47.854;7.944;2022-10-17T15:09:58;21.30;93.40
10247;DHT22;5168;47.854;7.944;2022-10-17T15:12:24;21.50;90.40
10247;DHT22;5168;47.854;7.944;2022-10-17T15:14:50;20.50;92.50
10247;DHT22;5168;47.854;7.944;2022-10-17T15:17:32;20.80;91.70
10247;DHT22;5168;47.854;7.944;2022-10-17T15:19:58;20.20;95.50
10247;DHT22;5168;47.854;7.944;2022-10-17T15:22:24;20.70;95.80
10247;DHT22;5168;47.854;7.944;2022-10-17T15:27:21;20.20;92.70
10247;DHT22;5168;47.854;7.944;2022-10-17T15:29:48;20.20;97.10
10247;DHT22;5168;47.854;7.944;2022-10-17T15:32:14;19.90;97.20
10247;DHT22;5168;47.854;7.944;2022-10-17T15:34:40;19.70;97.40
10247;DHT22;5168;47.854;7.944;2022-10-17T15:37:18;19.80;93.20
10247;DHT22;5168;47.854;7.944;2022-10-17T15:39:48;19.70;97.60
10247;DHT22;5168;47.854;7.944;2022-10-17T15:42:17;19.60;93.40
10247;DHT22;5168;47.854;7.944;2022-10-17T15:47:28;19.40;93.90
10247;DHT22;5168;47.854;7.944;2022-10-17T15:49:55;18.80;98.60
10247;DHT22;5168;47.854;7.944;2022-10-17T15:52:22;19.10;94.70
10247;DHT22;5168;47.854;7.944;2022-10-17T15:54:48;19.30;99.70
10247;DHT22;5168;47.854;7.944;2022-10-17T15:57:20;18.80;95.50
10247;DHT22;5168;47.854;7.944;2022-10-17T15:59:47;18.80;95.90
10247;DHT22;5168;47.854;7.944;2022-10-17T16:02:14;18.90;99.90
10247;DHT22;5168;47.854;7.944;2022-10-17T16:07:06;18.70;99.90
10247;DHT22;5168;47.854;7.944;2022-10-17T16:09:32;18.40;99.90
10247;DHT22;5168;47.854;7.944;2022-10-17T16:12:00;18.30;99.90
10247;DHT22;5168;47.854;7.944;2022-10-17T16:14:26;18.00;99.90
10247;DHT22;5168;47.854;7.944;2022-10-17T16:16:51;17.80;98.20
10247;DHT22;5168;47.854;7.944;2022-10-17T16:19:17;17.60;99.90
10247;DHT22;5168;47.854;7.944;2022-10-17T16:21:42;17.80;99.90
10247;DHT22;5168;47.854;7.944;2022-10-17T16:24:11;17.10;99.90
10247;DHT22;5168;47.854;7.944;2022-10-17T16:26:38;17.30;99.90
10247;DHT22;5168;47.854;7.944;2022-10-17T16:29:04;16.80;99.90
10247;DHT22;5168;47.854;7.944;2022-10-17T16:31:33;17.00;99.90
10247;DHT22;5168;47.854;7.944;2022-10-17T16:34:00;16.80;99.90
10247;DHT22;5168;47.854;7.944;2022-10-17T16:38:52;16.90;99.90
10247;DHT22;5168;47.854;7.944;2022-10-17T16:41:29;16.30;99.90
10247;DHT22;5168;47.854;7.944;2022-10-17T16:43:58;16.40;99.90
10247;DHT22;5168;47.854;7.944;2022-10-17T16:46:25;16.40;99.90
10247;DHT22;5168;47.854;7.944;2022-10-17T16:48:51;16.00;99.90
10247;DHT22;5168;47.854;7.944;2022-10-17T16:51:17;15.80;99.90
10247;DHT22;5168;47.854;7.944;2022-10-17T16:53:48;16.10;99.90
10247;DHT22;5168;47.854;7.944;2022-10-17T16:56:17;15.60;99.90
10247;DHT22;5168;47.854;7.944;2022-10-17T16:58:43;15.60;99.90
10247;DHT22;5168;47.854;7.944;2022-10-17T17:01:11;15.50;99.90
10247;DHT22;5168;47.854;7.944;2022-10-17T17:03:39;15.90;99.90
10247;DHT22;5168;47.854;7.944;2022-10-17T17:06:06;16.00;99.90
10247;DHT22;5168;47.854;7.944;2022-10-17T17:08:33;15.80;99.90
10247;DHT22;5168;47.854;7.944;2022-10-17T17:10:59;15.40;99.90
10247;DHT22;5168;47.854;7.944;2022-10-17T17:13:26;16.10;99.90
10247;DHT22;5168;47.854;7.944;2022-10-17T17:16:01;15.10;99.90
10247;DHT22;5168;47.854;7.944;2022-10-17T17:18:27;15.80;99.90
10247;DHT22;5168;47.854;7.944;2022-10-17T17:20:57;15.50;99.90
10247;DHT22;5168;47.854;7.944;2022-10-17T17:25:58;15.30;99.90
10247;DHT22;5168;47.854;7.944;2022-10-17T17:28:24;14.80;99.90
10247;DHT22;5168;47.854;7.944;2022-10-17T17:30:50;14.90;99.90
10247;DHT22;5168;47.854;7.944;2022-10-17T17:33:16;15.60;99.90
10247;DHT22;5168;47.854;7.944;2022-10-17T17:38:11;15.60;99.90
10247;DHT22;5168;47.854;7.944;2022-10-17T17:40:43;14.70;99.90
10247;DHT22;5168;47.854;7.944;2022-10-17T17:50:26;15.20;99.90
10247;DHT22;5168;47.854;7.944;2022-10-17T17:52:52;15.50;99.90
10247;DHT22;5168;47.854;7.944;2022-10-17T17:55:17;14.70;99.90
10247;DHT22;5168;47.854;7.944;2022-10-17T17:57:43;15.30;99.90
10247;DHT22;5168;47.854;7.944;2022-10-17T18:00:09;14.60;99.90
10247;DHT22;5168;47.854;7.944;2022-10-17T18:05:00;14.40;99.90
10247;DHT22;5168;47.854;7.944;2022-10-17T18:07:26;14.30;99.90
10247;DHT22;5168;47.854;7.944;2022-10-17T18:09:55;14.60;99.90
10247;DHT22;5168;47.854;7.944;2022-10-17T18:12:21;14.60;99.90
10247;DHT22;5168;47.854;7.944;2022-10-17T18:14:47;14.90;99.90
10247;DHT22;5168;47.854;7.944;2022-10-17T18:19:41;13.90;99.90
10247;DHT22;5168;47.854;7.944;2022-10-17T18:24:33;14.90;99.90
10247;DHT22;5168;47.854;7.944;2022-10-17T18:29:26;14.40;99.90
10247;DHT22;5168;47.854;7.944;2022-10-17T18:31:51;14.30;99.90
10247;DHT22;5168;47.854;7.944;2022-10-17T18:34:17;13.80;99.90
10247;DHT22;5168;47.854;7.944;2022-10-17T18:36:42;14.20;99.90
10247;DHT22;5168;47.854;7.944;2022-10-17T18:39:08;14.30;99.90
10247;DHT22;5168;47.854;7.944;2022-10-17T18:41:35;14.20;99.90
10247;DHT22;5168;47.854;7.944;2022-10-17T18:44:01;14.50;99.90
10247;DHT22;5168;47.854;7.944;2022-10-17T18:46:32;14.60;99.90
10247;DHT22;5168;47.854;7.944;2022-10-17T18:53:55;14.70;99.90
10247;DHT22;5168;47.854;7.944;2022-10-17T18:56:23;14.40;99.90
10247;DHT22;5168;47.854;7.944;2022-10-17T18:58:50;14.30;99.90
10247;DHT22;5168;47.854;7.944;2022-10-17T19:01:18;14.30;99.90
10247;DHT22;5168;47.854;7.944;2022-10-17T19:03:45;14.20;99.90
10247;DHT22;5168;47.854;7.944;2022-10-17T19:06:14;13.80;99.90
10247;DHT22;5168;47.854;7.944;2022-10-17T19:08:41;14.60;99.90
10247;DHT22;5168;47.854;7.944;2022-10-17T19:11:08;14.70;99.90
10247;DHT22;5168;47.854;7.944;2022-10-17T19:13:34;14.20;99.90
10247;DHT22;5168;47.854;7.944;2022-10-17T19:16:07;13.90;99.90
10247;DHT22;5168;47.854;7.944;2022-10-17T19:18:33;13.80;99.90
10247;DHT22;5168;47.854;7.944;2022-10-17T19:21:04;13.90;99.90
10247;DHT22;5168;47.854;7.944;2022-10-17T19:23:30;13.80;99.90
10247;DHT22;5168;47.854;7.944;2022-10-17T19:26:07;14.00;99.90
10247;DHT22;5168;47.854;7.944;2022-10-17T19:28:35;14.40;99.90
10247;DHT22;5168;47.854;7.944;2022-10-17T19:33:27;14.00;99.90
10247;DHT22;5168;47.854;7.944;2022-10-17T19:35:59;14.00;99.90
10247;DHT22;5168;47.854;7.944;2022-10-17T19:38:25;13.70;99.90
10247;DHT22;5168;47.854;7.944;2022-10-17T19:40:51;13.30;99.90
10247;DHT22;5168;47.854;7.944;2022-10-17T19:43:16;13.80;99.90
10247;DHT22;5168;47.854;7.944;2022-10-17T19:45:42;13.40;99.90
10247;DHT22;5168;47.854;7.944;2022-10-17T19:53:00;14.20;99.90
10247;DHT22;5168;47.854;7.944;2022-10-17T19:55:25;13.80;99.90
10247;DHT22;5168;47.854;7.944;2022-10-17T19:57:51;13.50;99.90
10247;DHT22;5168;47.854;7.944;2022-10-17T20:02:42;13.60;99.90
10247;DHT22;5168;47.854;7.944;2022-10-17T20:05:08;13.40;99.90
10247;DHT22;5168;47.854;7.944;2022-10-17T20:07:41;13.70;99.90
10247;DHT22;5168;47.854;7.944;2022-10-17T20:10:10;13.30;99.90
10247;DHT22;5168;47.854;7.944;2022-10-17T20:22:19;13.40;99.90
10247;DHT22;5168;47.854;7.944;2022-10-17T20:24:45;13.70;99.90
10247;DHT22;5168;47.854;7.944;2022-10-17T20:27:10;13.50;99.90
10247;DHT22;5168;47.854;7.944;2022-10-17T20:32:02;13.80;99.90
10247;DHT22;5168;47.854;7.944;2022-10-17T20:34:27;13.90;99.90
10247;DHT22;5168;47.854;7.944;2022-10-17T20:39:25;13.50;99.90
10247;DHT22;5168;47.854;7.944;2022-10-17T20:46:43;13.50;99.90
10247;DHT22;5168;47.854;7.944;2022-10-17T20:49:13;13.50;99.90
10247;DHT22;5168;47.854;7.944;2022-10-17T20:51:39;13.60;99.90
10247;DHT22;5168;47.854;7.944;2022-10-17T20:54:04;13.60;99.90